Latest Weather Observations for Mandora

IDW60801

Issued at 6:05 pm WST Saturday 30 August 2014 (issued every 30 minutes, with the page automatically refreshed every 10 minutes)

About weather observations | Map of weather stations | Latest weather observations for WA | Other Formats
Station Details ID: 004019 Name: MANDORA Lat: -19.74 Lon: 120.84 Height: 7.5 m
Data from the previous 72 hours. | See also: Recent months at Mandora
Date/Time
WST
Temp
°C
App
Temp
°C
Dew
Point
Rel
Hum
%
Delta-T
°C
Wind Press
QNH
hPa
Press
MSL
hPa
Rain
since 9 am
mm
Dir
 
Spd
km/h
Gust
km/h
Spd
kts
Gust
kts
30/06:00pm 22.7 - - - - WNW 11 13 6 7 1014.2 1014.2 0.0
30/05:30pm 26.5 - - - - WNW 9 13 5 7 1013.9 - 0.0
30/05:00pm 28.6 - - - - WNW 13 19 7 10 1013.8 - 0.0
30/04:30pm 29.9 - - - - WNW 15 20 8 11 1013.6 - 0.0
30/04:00pm 31.0 - - - - WNW 15 20 8 11 1013.3 - 0.0
30/03:30pm 31.5 - - - - NNW 17 24 9 13 1013.2 - 0.0
30/03:00pm 32.3 - - - - NNW 17 24 9 13 1013.2 1013.2 0.0
30/02:30pm 32.3 - - - - N 19 24 10 13 1013.3 - 0.0
30/02:00pm 32.0 - - - - N 20 26 11 14 1013.5 - 0.0
30/01:30pm 32.4 - - - - N 22 32 12 17 1013.8 - 0.0
30/01:00pm 32.8 - - - - N 24 35 13 19 1014.2 - 0.0
30/12:30pm 33.3 - - - - NNE 20 30 11 16 1014.7 - 0.0
30/12:00pm 33.0 - - - - NNE 19 28 10 15 1015.1 1015.1 0.0
30/11:30am 33.2 - - - - E 19 28 10 15 1015.6 - 0.0
30/11:00am 32.4 - - - - ENE 20 35 11 19 1016.2 - 0.0
30/10:30am 31.6 - - - - ENE 19 30 10 16 1016.6 - 0.0
30/10:00am 31.0 - - - - E 17 28 9 15 1017.0 - 0.0
30/09:30am 29.9 - - - - E 15 24 8 13 1017.4 - 0.0
30/09:00am 27.5 - - - - E 17 26 9 14 1017.5 1017.5 0.0
30/08:30am 25.2 - - - - E 13 20 7 11 1017.4 - 0.0
30/08:00am 21.3 - - - - SE 15 20 8 11 1017.3 - 0.0
30/07:30am 18.4 - - - - SE 9 15 5 8 1017.1 - 0.0
30/07:00am 17.4 - - - - SSE 11 17 6 9 1016.7 - 0.0
30/06:30am 12.7 - - - - SSE 11 13 6 7 1016.4 - 0.0
30/06:00am 10.1 - - - - SSE 9 11 5 6 1016.1 1016.1 0.0
30/05:30am 12.3 - - - - SE 9 11 5 6 1016.1 - 0.0
30/05:00am 14.9 - - - - SSE 11 17 6 9 1015.7 - 0.0
30/04:30am 16.0 - - - - S 13 19 7 10 1015.5 - 0.0
30/04:00am 16.0 - - - - S 15 20 8 11 1015.5 - 0.0
30/03:30am 14.7 - - - - S 13 15 7 8 1015.5 - 0.0
30/03:00am 16.0 - - - - S 13 17 7 9 1015.6 1015.6 0.0
30/02:30am 16.2 - - - - S 13 19 7 10 1015.7 - 0.0
30/02:00am 15.4 - - - - S 11 15 6 8 1015.9 - 0.0
30/01:30am 15.4 - - - - S 11 15 6 8 1015.9 - 0.0
30/01:00am 15.2 - - - - S 11 13 6 7 1016.1 - 0.0
30/12:30am 15.9 - - - - S 13 17 7 9 1016.4 - 0.0
30/12:00am 16.0 - - - - S 15 17 8 9 1016.6 1016.6 0.0
 
Date/Time
WST
Temp
°C
App
Temp
°C
Dew
Point
Rel
Hum
%
Delta-T
°C
Wind Press
QNH
hPa
Press
MSL
hPa
Rain
since 9 am
mm
Dir
 
Spd
km/h
Gust
km/h
Spd
kts
Gust
kts
29/11:30pm 15.6 - - - - S 13 17 7 9 1016.6 - 0.0
29/11:00pm 14.5 - - - - SSW 11 15 6 8 1016.6 - 0.0
29/10:30pm 13.8 - - - - S 11 13 6 7 1016.6 - 0.0
29/10:00pm 12.6 - - - - S 11 13 6 7 1016.6 - 0.0
29/09:30pm 12.8 - - - - S 7 9 4 5 1016.7 - 0.0
29/09:00pm 14.4 - - - - S 9 11 5 6 1016.6 1016.6 0.0
29/08:30pm 15.8 - - - - S 9 11 5 6 1016.4 - 0.0
29/08:00pm 17.6 - - - - SW 11 11 6 6 1016.2 - 0.0
29/07:30pm 18.4 - - - - SW 11 13 6 7 1016.0 - 0.0
29/07:00pm 18.4 - - - - SW 11 13 6 7 1015.7 - 0.0
29/06:30pm 19.9 - - - - WSW 11 11 6 6 1015.2 - 0.0
29/06:00pm 22.1 - - - - W 9 11 5 6 1015.0 1015.0 0.0
29/05:30pm 25.1 - - - - WNW 9 15 5 8 1014.7 - 0.0
29/05:00pm 27.2 - - - - WNW 11 17 6 9 1014.4 - 0.0
29/04:30pm 28.6 - - - - NW 15 22 8 12 1014.2 - 0.0
29/04:00pm 29.1 - - - - NNW 17 20 9 11 1014.1 - 0.0
29/03:30pm 30.2 - - - - NNW 17 24 9 13 1014.0 - 0.0
29/03:00pm 31.2 - - - - NNW 17 26 9 14 1014.1 1014.1 0.0
29/02:30pm 31.3 - - - - NNW 19 26 10 14 1014.4 - 0.0
29/02:00pm 31.7 - - - - N 20 30 11 16 1014.6 - 0.0
29/01:30pm 31.7 - - - - N 20 32 11 17 1014.7 - 0.0
29/01:00pm 33.1 - - - - ENE 13 30 7 16 1015.1 - 0.0
29/12:30pm 32.9 - - - - NE 17 35 9 19 1015.6 - 0.0
29/12:00pm 31.8 - - - - N 20 32 11 17 1015.8 1015.8 0.0
29/11:30am 32.5 - - - - NE 19 33 10 18 1016.6 - 0.0
29/11:00am 32.4 - - - - ENE 22 33 12 18 1017.0 - 0.0
29/10:30am 31.7 - - - - ENE 15 26 8 14 1017.5 - 0.0
29/10:00am 29.1 - - - - E 17 26 9 14 1017.9 - 0.0
29/09:30am 27.5 - - - - E 17 32 9 17 1018.0 - 0.0
29/09:00am 26.6 - - - - E 20 32 11 17 1018.1 1018.1 0.0
29/08:30am 24.9 - - - - E 15 24 8 13 1018.0 - 0.0
29/08:00am 21.9 - - - - ESE 19 28 10 15 1017.7 - 0.0
29/07:30am 18.0 - - - - SE 13 19 7 10 1017.5 - 0.0
29/07:00am 14.8 - - - - SE 9 15 5 8 1017.3 - 0.0
29/06:30am 12.2 - - - - SE 11 13 6 7 1017.0 - 0.0
29/06:00am 11.9 - - - - SE 11 15 6 8 1016.5 1016.5 0.0
29/05:30am 10.8 - - - - SE 11 13 6 7 1016.5 - 0.0
29/05:00am 9.7 - - - - SE 13 15 7 8 1016.2 - 0.0
29/04:30am 10.3 - - - - ESE 11 15 6 8 1016.2 - 0.0
29/04:00am 11.1 - - - - ESE 11 13 6 7 1016.2 - 0.0
29/03:30am 11.7 - - - - ESE 11 15 6 8 1016.0 - 0.0
29/03:00am 11.7 - - - - ESE 9 13 5 7 1015.9 1015.9 0.0
29/02:30am 12.7 - - - - ESE 9 11 5 6 1015.7 - 0.0
29/02:00am 14.8 - - - - SE 9 13 5 7 1015.9 - 0.0
29/01:30am 15.1 - - - - SSE 9 13 5 7 1016.0 - 0.0
29/01:00am 15.2 - - - - SSE 11 13 6 7 1016.3 - 0.0
29/12:30am 15.2 - - - - SSE 11 13 6 7 1016.5 - 0.0
29/12:00am 15.5 - - - - SSE 11 13 6 7 1016.4 1016.4 0.0
 
Date/Time
WST
Temp
°C
App
Temp
°C
Dew
Point
Rel
Hum
%
Delta-T
°C
Wind Press
QNH
hPa
Press
MSL
hPa
Rain
since 9 am
mm
Dir
 
Spd
km/h
Gust
km/h
Spd
kts
Gust
kts
28/11:30pm 16.1 - - - - S 9 11 5 6 1016.4 - 0.0
28/11:00pm 16.8 - - - - S 9 13 5 7 1016.5 - 0.0
28/10:30pm 16.6 - - - - S 13 15 7 8 1016.4 - 0.0
28/10:00pm 16.0 - - - - S 9 13 5 7 1016.4 - 0.0
28/09:30pm 16.9 - - - - S 11 13 6 7 1016.3 - 0.0
28/09:00pm 16.4 - - - - S 11 13 6 7 1016.3 1016.3 0.0
28/08:30pm 17.5 - - - - SSW 11 11 6 6 1016.1 - 0.0
28/08:00pm 19.3 - - - - SW 11 13 6 7 1015.9 - 0.0
28/07:30pm 18.5 - - - - SW 11 13 6 7 1015.6 - 0.0
28/07:00pm 19.0 - - - - SW 9 11 5 6 1015.2 - 0.0
28/06:30pm 19.1 - - - - W 6 7 3 4 1015.0 - 0.0
28/06:00pm 23.0 - - - - W 7 11 4 6 1014.7 1014.7 0.0
28/05:30pm 26.5 - - - - W 7 11 4 6 1014.3 - 0.0
28/05:00pm 28.8 - - - - NNW 17 26 9 14 1013.9 - 0.0
28/04:30pm 31.0 - - - - NW 11 17 6 9 1013.4 - 0.0
28/04:00pm 31.5 - - - - N 15 24 8 13 1013.0 - 0.0
28/03:30pm 32.2 - - - - N 17 24 9 13 1012.9 - 0.0
28/03:00pm 32.4 - - - - N 19 28 10 15 1013.2 1013.2 0.0
28/02:30pm 33.0 - - - - N 20 30 11 16 1013.7 - 0.0
28/02:00pm 32.1 - - - - N 26 33 14 18 1014.0 - 0.0
28/01:30pm 33.2 - - - - NNE 20 32 11 17 1014.2 - 0.0
28/01:00pm 33.1 - - - - NE 17 26 9 14 1014.5 - 0.0
28/12:30pm 33.4 - - - - ENE 20 32 11 17 1015.0 - 0.0
28/12:00pm 33.3 - - - - ENE 19 32 10 17 1015.4 1015.4 0.0
28/11:30am 32.9 - - - - E 20 33 11 18 1016.0 - 0.0
28/11:00am 32.3 - - - - E 20 35 11 19 1016.5 - 0.0
28/10:30am 30.5 - - - - ENE 19 32 10 17 1017.1 - 0.0
28/10:00am 28.9 - - - - E 17 26 9 14 1017.7 - 0.0
28/09:30am 27.2 - - - - E 15 24 8 13 1018.0 - 0.0
28/09:00am 25.5 - - - - E 17 28 9 15 1018.1 1018.1 0.0
28/08:30am 23.2 - - - - E 13 24 7 13 1018.0 - 0.0
28/08:00am 21.0 - - - - E 11 17 6 9 1017.9 - 0.0
28/07:30am 17.7 - - - - ESE 13 19 7 10 1017.7 - 0.0
28/07:00am 13.6 - - - - SE 11 13 6 7 1017.4 - 0.0
28/06:59am 13.5 - - - - SE 11 13 6 7 1017.4 - 0.0
28/06:30am 8.5 - - - - ESE 11 13 6 7 1016.8 - 0.0
28/06:00am 7.8 - - - - ESE 11 13 6 7 1016.5 1016.5 0.0
28/05:30am 7.9 - - - - ENE 7 11 4 6 1016.2 - 0.0
28/05:00am 8.9 - - - - E 9 13 5 7 1015.9 - 0.0
28/04:30am 9.1 - - - - E 9 13 5 7 1015.7 - 0.0
28/04:00am 9.3 - - - - E 6 7 3 4 1015.4 - 0.0
28/03:30am 9.8 - - - - E 9 13 5 7 1015.1 - 0.0
28/03:00am 10.1 - - - - SE 9 11 5 6 1014.9 1014.9 0.0
28/02:30am 12.7 - - - - SE 9 22 5 12 1014.9 - 0.0
28/02:00am 12.5 - - - - ESE 7 13 4 7 1015.0 - 0.0
28/01:30am 12.4 - - - - ENE 20 26 11 14 1015.5 - 0.0
28/01:00am 12.1 - - - - SSE 9 11 5 6 1015.2 - 0.0
28/12:30am 12.5 - - - - SSE 9 11 5 6 1015.3 - 0.0
28/12:00am 12.2 - - - - SSE 9 9 5 5 1015.6 1015.6 0.0
 
Date/Time
WST
Temp
°C
App
Temp
°C
Dew
Point
Rel
Hum
%
Delta-T
°C
Wind Press
QNH
hPa
Press
MSL
hPa
Rain
since 9 am
mm
Dir
 
Spd
km/h
Gust
km/h
Spd
kts
Gust
kts
27/11:30pm 14.4 - - - - S 11 11 6 6 1015.9 - 0.0
27/11:00pm 14.2 - - - - S 7 9 4 5 1016.1 - 0.0
27/10:30pm 14.9 - - - - S 6 9 3 5 1016.1 - 0.0
27/10:00pm 15.1 - - - - S 11 13 6 7 1016.0 - 0.0
27/09:30pm 17.1 - - - - SSW 9 13 5 7 1016.1 - 0.0
27/09:00pm 17.4 - - - - SW 11 15 6 8 1016.2 1016.2 0.0
27/08:30pm 16.4 - - - - SSW 11 15 6 8 1016.0 - 0.0
27/08:00pm 16.5 - - - - SSW 9 11 5 6 1015.8 - 0.0
27/07:30pm 16.7 - - - - WSW 9 11 5 6 1015.6 - 0.0
27/07:00pm 17.9 - - - - WSW 7 13 4 7 1015.1 - 0.0
27/06:30pm 20.7 - - - - W 7 9 4 5 1014.6 - 0.0

Other Formats:

Comma delimited format used in spreadsheet applications
http://www.bom.gov.au/fwo/IDW60801/IDW60801.94200.axf

JavaScript Object Notation format (JSON) in row-major order
http://www.bom.gov.au/fwo/IDW60801/IDW60801.94200.json